Terminal Aerodrome Forecast
Issued by NWS

Home | Current Version | Previous Version | Text Only | Print | Product List | Glossary On
Versions: 1 2 3 4 5 6 7 8 9 10 11 12 13 14 15 16 17 18 19
000
FTUS46 KMTR 291123
TAFMRY
TAF
KMRY 291123Z 2912/3012 11003KT P6SM SKC
      TEMPO 2912/2915 1SM BR VV002
     FM291700 VRB03KT P6SM SKC
     FM292000 26008KT P6SM SKC
     FM300300 25003KT P6SM SKC
     FM300500 VRB03KT 4SM BR OVC003=

USA.gov is the U.S. government's official web portal to all federal, state and local government web resources and services.